Metar Cercanos

 

LEPA - Palma De Mallorc, Spain
Distance from station: ONO 38km
Actualización: Sun, 24-Jan-2021 2:00pm CET
Few Clouds
Few Clouds
 Viento del NO
Viento: NO 33 km/h, Racha: 56 km/h
Temperatura: 16°C
Rocío: 6°C
Humedad: 52%
Barómetro: 1010 hPa
Clouds: Few Clouds
Visibility: 10 km
Cloud details: Few Clouds 1067 m
2021/01/24 13:00 LEPA 241300Z 31018G30KT 280V350 9999 FEW035 16/06 Q1010 NOSIG
LEMH - Mahon/Menorca Is, Spain
Distance from station: ENE 105km
Actualización: Sun, 24-Jan-2021 2:00pm CET
Parcialmente nuboso
Parcialmente nuboso
 Viento del N
Viento: N 26 km/h
Temperatura: 12°C
Rocío: 6°C
Humedad: 67%
Barómetro: 1009 hPa
Clouds: Parcialmente nuboso
Visibility: 10 km
Cloud details: Few Clouds 671 m
Parcialmente nuboso 1219 m
2021/01/24 13:00 LEMH 241300Z 36014KT 9999 FEW022 SCT040 12/06 Q1009
 
LEIB - Ibiza/Es Codola, Spain
Distance from station: OSO 165km
Actualización: Sun, 24-Jan-2021 2:00pm CET
Few Clouds
Few Clouds
 Viento del O
Viento: O 15 km/h
Temperatura: 18°C
Rocío: 5°C
Humedad: 43%
Barómetro: 1012 hPa
Clouds: Few Clouds
Visibility: 10 km
Cloud details: Few Clouds 610 m
2021/01/24 13:00 LEIB 241300Z 28008KT 240V320 9999 FEW020 18/05 Q1012 NOSIG
LEBL - Barcelona Airpor, Spain
Distance from station: NNO 225km
Actualización: Sun, 24-Jan-2021 2:00pm CET
Few Clouds
Few Clouds
 Viento del S
Viento: S 20 km/h
Temperatura: 14°C
Rocío: 8°C
Humedad: 67%
Barómetro: 1008 hPa
Clouds: Few Clouds
Visibility: 10 km
Cloud details: Few Clouds 1067 m
2021/01/24 13:00 LEBL 241300Z 17011KT 130V200 9999 FEW035 14/08 Q1008 NOSIG
 
LEVC - Valencia (civ/Mi, Spain
Distance from station: NO 188km
Actualización: Sun, 24-Jan-2021 2:00pm CET
Few Clouds
Few Clouds
 Viento del ONO
Viento: ONO 31 km/h
Temperatura: 20°C
Rocío: 2°C
Humedad: 30%
Barómetro: 1011 hPa
Clouds: Few Clouds
Visibility: 10 km
Cloud details: Few Clouds 1067 m
2021/01/24 13:00 LEVC 241300Z 29017KT 250V320 9999 FEW035 20/02 Q1011 NOSIG
LEGE - Gerona/Costa Bra, Spain
Distance from station: N 276km
Actualización: Sun, 24-Jan-2021 2:00pm CET
Few Clouds
Few Clouds
 Viento del S
Viento: S 20 km/h
Temperatura: 13°C
Rocío: 4°C
Humedad: 55%
Barómetro: 1007 hPa
Clouds: Few Clouds
Visibility: 10 km
Cloud details: Few Clouds 2743 m
2021/01/24 13:00 LEGE 241300Z 18011KT 9999 FEW090 13/04 Q1007
 
LEAL - Alicante/El Alte, Spain
Distance from station: OSO 344km
Actualización: Sun, 24-Jan-2021 2:00pm CET
Despejado
Despejado
 Viento del ONO
Viento: ONO 24 km/h
Temperatura: 20°C
Rocío: 3°C
Humedad: 33%
Barómetro: 1012 hPa
Resumen: Despejado
Visibility: greater than 10 km
2021/01/24 13:00 LEAL 241300Z 30013KT 270V340 CAVOK 20/03 Q1012 NOSIG
LEAM - Almeria Airport, Spain
Distance from station: SSO 56km
Actualización: Sun, 24-Jan-2021 2:00pm CET
Despejado
Despejado
 Viento del OSO
Viento: OSO 28 km/h
Temperatura: 18°C
Rocío: 14°C
Humedad: 78%
Barómetro: 1013 hPa
Resumen: Despejado
Visibility: greater than 10 km
2021/01/24 13:00 LEAM 241300Z 24015KT 200V260 CAVOK 18/14 Q1013
 
LEZG - Zaragoza (mil/Ci, Spain
Distance from station: NO 431km
Actualización: Sun, 24-Jan-2021 2:00pm CET
Few Clouds
Few Clouds
 Viento del NO
Viento: NO 11 km/h
Temperatura: 13°C
Rocío: 5°C
Humedad: 59%
Barómetro: 1011 hPa
Clouds: Few Clouds
Visibility: 10 km
Cloud details: Few Clouds 1524 m
2021/01/24 13:00 LEZG 241300Z 31006KT 280V340 9999 FEW050 13/05 Q1011
LEMD - Madrid/Barajas, Spain
Distance from station: ONO 234km
Actualización: Sun, 24-Jan-2021 2:00pm CET
Few Clouds
Few Clouds
 Viento del OSO
Viento: OSO 24 km/h
Temperatura: 12°C
Rocío: 1°C
Humedad: 47%
Barómetro: 1014 hPa
Clouds: Few Clouds
Visibility: 10 km
Cloud details: Few Clouds 1463 m
2021/01/24 13:00 LEMD 241300Z 25013KT 220V280 9999 FEW048 12/01 Q1014 NOSIG
 
LEGR - Granada Airport, Spain
Distance from station: OSO 62km
Actualización: Sun, 24-Jan-2021 2:00pm CET
Parcialmente nuboso
Parcialmente nuboso
 Viento del O
Viento: O 28 km/h
Temperatura: 15°C
Rocío: 10°C
Humedad: 72%
Barómetro: 1018 hPa
Clouds: Parcialmente nuboso
Visibility: 10 km
Cloud details: Few Clouds 1097 m
Parcialmente nuboso 1402 m
2021/01/24 13:00 LEGR 241300Z 28015KT 250V320 9999 FEW036 SCT046 15/10 Q1018
LEMG - Malaga (civ/Mil), Spain
Distance from station: OSO 227km
Actualización: Sun, 24-Jan-2021 2:00pm CET
Muy nuboso
Muy nuboso
 Viento del NO
Viento: NO 20 km/h, Racha: 39 km/h
Temperatura: 20°C
Rocío: 12°C
Humedad: 60%
Barómetro: 1017 hPa
Clouds: Muy nuboso
Visibility: 10 km
Cloud details: Parcialmente nuboso 914 m
Muy nuboso 1372 m
2021/01/24 13:00 LEMG 241300Z 31011G21KT 280V340 9999 SCT030 BKN045 20/12 Q1017 NOSIG
 
LEZL - Sevilla (civ/Mil, Spain
Distance from station: S 318km
Actualización: Sun, 24-Jan-2021 2:00pm CET
Few Clouds
Few Clouds
 Viento del NO
Viento: NO 6 km/h
Temperatura: 17°C
Rocío: 9°C
Humedad: 59%
Barómetro: 1019 hPa
Clouds: Few Clouds
Visibility: 10 km
Cloud details: Few Clouds 610 m
2021/01/24 13:00 LEZL 241300Z 32003KT 9999 FEW020 17/09 Q1019 NOSIG
LEVT - Vitoria, Spain
Distance from station: NO 226km
Actualización: Sun, 24-Jan-2021 2:00pm CET
Few Clouds
Few Clouds
 Viento del OSO
Viento: OSO 20 km/h
Temperatura: 10°C
Sensación frio: 7°C
Rocío: 4°C
Humedad: 67%
Barómetro: 1011 hPa
Clouds: Few Clouds
Visibility: 10 km
Cloud details: Few Clouds 1280 m
2021/01/24 13:00 LEVT 241300Z 24011KT 9999 FEW042 10/04 Q1011
 
LEBB - Bilbao/Sondica, Spain
Distance from station: NNO 235km
Actualización: Sun, 24-Jan-2021 2:00pm CET
Muy nuboso
Muy nuboso
 Viento del O
Viento: O 20 km/h
Temperatura: 13°C
Rocío: 6°C
Humedad: 63%
Barómetro: 1011 hPa
Clouds: Muy nuboso
Visibility: 10 km
Cloud details: Few Clouds 1219 m
Muy nuboso 1920 m
2021/01/24 13:00 LEBB 241300Z 28011KT 240V310 9999 FEW040 BKN063 13/06 Q1011 NOSIG
LESO - San Sebastian/Fu, Spain
Distance from station: N 231km
Actualización: Sun, 24-Jan-2021 2:00pm CET
Lluvia, Muy nuboso
Lluvia, Muy nuboso
 Viento del SO
Viento: SO 17 km/h
Temperatura: 9°C
Sensación frio: 7°C
Rocío: 8°C
Humedad: 94%
Barómetro: 1011 hPa
Resumen: Lluvia
Clouds: Muy nuboso
Visibility: 10 km
Cloud details: Few Clouds 610 m
Muy nuboso 914 m
Muy nuboso 1372 m
2021/01/24 13:00 LESO 241300Z 23009KT 200V280 9999 4000E RA FEW020 BKN030 BKN045 09/08 Q1011
 
LEVD - Valladolid(Mil/C, Spain
Distance from station: ONO 239km
Actualización: Sun, 24-Jan-2021 2:00pm CET
Muy nuboso
Muy nuboso
 Viento del OSO
Viento: OSO 37 km/h
Temperatura: 9°C
Sensación frio: 4°C
Rocío: 3°C
Humedad: 66%
Barómetro: 1014 hPa
Clouds: Muy nuboso
Visibility: 10 km
Cloud details: Parcialmente nuboso 701 m
Muy nuboso 1036 m
2021/01/24 13:00 LEVD 241300Z 25020KT 9999 SCT023 BKN034 09/03 Q1014
LESA - Salamanca (civ/M, Spain
Distance from station: ONO 349km
Actualización: Sun, 24-Jan-2021 2:00pm CET
Muy nuboso
Muy nuboso
 Viento del O
Viento: O 30 km/h
Temperatura: 9°C
Sensación frio: 5°C
Rocío: 3°C
Humedad: 66%
Barómetro: 1015 hPa
Clouds: Muy nuboso
Visibility: 10 km
Cloud details: Few Clouds 610 m
Parcialmente nuboso 762 m
Muy nuboso 1067 m
2021/01/24 13:00 LESA 241300Z 26016KT 230V290 9999 FEW020 SCT025 BKN035 09/03 Q1015
 
LEXJ - Santander/Paraya, Spain
Distance from station: NNO 247km
Actualización: Sun, 24-Jan-2021 2:00pm CET
Parcialmente nuboso
Parcialmente nuboso
 Viento del O
Viento: O 17 km/h
Temperatura: 14°C
Rocío: 7°C
Humedad: 63%
Barómetro: 1011 hPa
Clouds: Parcialmente nuboso
Visibility: 10 km
Cloud details: Few Clouds 1829 m
Parcialmente nuboso 2438 m
2021/01/24 13:00 LEXJ 241300Z 27009KT 240V300 9999 FEW060 SCT080 14/07 Q1011
LEAS - Asturias/Aviles, Spain
Distance from station: NO 214km
Actualización: Sun, 24-Jan-2021 2:00pm CET
Muy nuboso
Muy nuboso
 Viento del O
Viento: O 26 km/h
Temperatura: 13°C
Rocío: 6°C
Humedad: 63%
Barómetro: 1011 hPa
Clouds: Muy nuboso
Visibility: 10 km
Cloud details: Parcialmente nuboso 1219 m
Muy nuboso 1524 m
2021/01/24 13:00 LEAS 241300Z 26014KT 9999 SCT040 BKN050 13/06 Q1011 NOSIG
 
LECO - La Coruna/Alvedr, Spain
Distance from station: ONO 222km
Actualización: Sun, 24-Jan-2021 2:00pm CET
Few Clouds
Few Clouds
 Viento del O
Viento: O 15 km/h
Temperatura: 13°C
Rocío: 9°C
Humedad: 77%
Barómetro: 1013 hPa
Clouds: Few Clouds
Visibility: 10 km
Cloud details: Few Clouds 914 m
2021/01/24 13:00 LECO 241300Z 27008KT 230V320 9999 FEW030 13/09 Q1013 NOSIG
LEVX - Vigo/Peinador, Spain
Distance from station: O 214km
Actualización: Sun, 24-Jan-2021 2:00pm CET
Muy nuboso
Muy nuboso
 Viento del SO
Viento: SO 15 km/h
Temperatura: 12°C
Rocío: 9°C
Humedad: 82%
Barómetro: 1015 hPa
Clouds: Muy nuboso
Visibility: 10 km
Cloud details: Parcialmente nuboso 396 m
Muy nuboso 762 m
Muy nuboso 1189 m
2021/01/24 13:00 LEVX 241300Z 23008KT 190V260 9999 SCT013 BKN025 BKN039 12/09 Q1015 TEMPO 0800 -RA FG